默认 日期 大小 文件数 浏览量 最新下载 xml
lebron磁力链接相关资源由用户搜索指令自动获取,结果来源于网络,本站不存储任何资料,亦不承担任何责任,请于24小时内删除,搜索到73个磁力,用时0ms。
    {"71st.NBA.All-Star.Game.20th.February.2022.Team.Durant.vs.Team.LeBron.1080p.WEB.x264-SUAV.mkv": 6229201027, "71st.NBA.All-Star.Game.20th.February.2022.Team.Durant.vs.Team.LeBron.1080p.WEB.x264-SUAV.nfo": 1375}
创建时间: 2022-02-21 20:11:18 大小:5.8 GB 文件数量:2 热度:18 最近下载:2025-04-28 03:47:01
    ... .Mind.of.Kevin.Durant.S01E02.LeBron.James.and.Anthony.Davis.XviD ... .Mind.of.Kevin.Durant.S01E02.LeBron.James.and.Anthony.Davis.XviD ...
创建时间: 2022-03-06 10:13:05 大小:598.82 MB 文件数量:6 热度:6 最近下载:2025-01-02 12:34:05
    ... , "Jimmy.Kimmel.2021.07.13.LeBron.James.XviD-AFG.avi": 1181065780 ... , "Jimmy.Kimmel.2021.07.13.LeBron.James.XviD-AFG.nfo": 1129}
创建时间: 2022-08-31 17:19:57 大小:1.1 GB 文件数量:6 热度:5 最近下载:2025-02-08 19:58:02
    ... ": 4588, "07. LeBron - Shades.flac": 29899288, "03. LeBron - Kinetic.flac": 27298110 ... ": 29559863, "09. LeBron - Spotlight.flac": 28278823, "01. LeBron - Shift Change.flac ... ": 28155808, "07. LeBron - Undeniable.flac": 29341462, "08. LeBron - Green Light.flac ...
创建时间: 2022-10-18 15:58:27 大小:856.38 MB 文件数量:37 热度:2 最近下载:2025-01-10 16:06:09
    {"72nd.NBA.All-Star.Game.19th.February.2023.Team.Giannis.vs.Team.LeBron.720p.WEB.x264-SUAV.mkv": 6500031738, "72nd.NBA.All-Star.Game.19th.February.2023.Team.Giannis.vs.Team.LeBron.720p.WEB.x264-SUAV.nfo": 1344}
创建时间: 2023-02-23 22:29:03 大小:6.05 GB 文件数量:2 热度:7 最近下载:2025-02-03 03:27:06
    {"NEW upcoming releases by Xclusive.txt": 175, "[TGx]Downloaded from torrentgalaxy.to .txt": 718, "Chasing.Greatness.Coach.K.x.LeBron.2023.720p.WEBRip.400MB.x264-GalaxyRG.mkv": 417434839}
创建时间: 2023-02-27 21:10:26 大小:398.1 MB 文件数量:3 热度:7 最近下载:2025-10-13 16:19:03
    {"RARBG.txt": 30, "RARBG_DO_NOT_MIRROR.exe": 99, "chasing.greatness.coach.k.x.lebron.2023.1080p.web.h264-bigdoc.mkv": 1967172832, "chasing.greatness.coach.k.x.lebron.2023.1080p.web.h264-bigdoc.nfo": 418}
创建时间: 2023-03-08 07:41:46 大小:1.83 GB 文件数量:4 热度:7 最近下载:2025-09-18 23:49:03
    {"[TGx]Downloaded from torrentgalaxy.to .txt": 718, "jimmy.kimmel.2021.07.13.lebron.james.720p.hdtv.x264-60fps.mkv": 1681751272, "jimmy.kimmel.2021.07.13.lebron.james.720p.hdtv.x264-60fps.nfo": 93}
创建时间: 2023-06-08 17:39:33 大小:1.57 GB 文件数量:3 热度:2 最近下载:2025-02-15 03:30:04
    {"2013 - Shades": {"cover.jpg": 1764978, "07. Shades.mp3": 10781295, "03. Kinetic.mp3": 9500252, "08. Let It Go.mp3": 9890003, "02. Turn It Up.mp3": 9478315, "01. Groove City.mp3": 9856570, "04. Kiss and Tell.mp3": 10000770, "10. Remember When.mp3": ...
创建时间: 2023-06-27 15:14:10 大小:317.37 MB 文件数量:34 热度:2 最近下载:2025-01-20 18:04:02
    {"Comando.LA.url": 45, "BAIXAR OUTROS FILMES.url": 210, "Shooting.Stars.A.Vida.de.Lebron.James.2023.1080p.WEB-DL.DUAL.mkv": 3048122985}
创建时间: 2023-09-17 07:31:28 大小:2.84 GB 文件数量:3 热度:3 最近下载:2025-06-19 13:03:03
    {"Shooting Stars A Vida de Lebron James 2023 WEB-DL.mkv": 2574405455}
创建时间: 2023-09-17 15:22:00 大小:2.4 GB 文件数量:1 热度:2 最近下载:2025-01-18 08:58:07
    {"11. TimTales - BBC 3some.mp4": 1872852179, "TimTales - BBC 3some Screencaps": {"BBC_3some01.jpg": 167936, "BBC_3some02.jpg": 170940, "BBC_3some03.jpg": 193442, "BBC_3some04.jpg": 174438, "BBC_3some05.jpg": 174748, "BBC_3some06.jpg": 176120, "BBC_3some07. ...
创建时间: 2023-10-02 15:27:46 大小:13.41 GB 文件数量:619 热度:4 最近下载:2025-03-25 09:43:02
    ... .jpg": 182722}, "1. TimTales - Devon Lebron and Dano Guerre.mp4": 968948524 ... -75.jpg": 168987}, "TimTales - Devon Lebron and Dano Guerre Screencaps": {"DevonLebron ...
创建时间: 2023-10-04 17:52:03 大小:9 GB 文件数量:714 热度:6 最近下载:2025-01-18 08:55:09
    ... "Ian Torres & Devon Lebron.mp4": 139443721, "Devon Lebron & Oscar Marin.mp4": ... bareback.mp4": 267480805, "Devon Lebron barebacks Jonathan Miranda.mp4": 119101645 ... mp4": 180126157, "Santiago 3some - Devon Lebron, Fostter Riviera, Santiago.MP4": 183448655 ...
创建时间: 2023-12-03 16:51:46 大小:11.97 GB 文件数量:53 热度:4 最近下载:2025-01-14 18:29:04
    {"[TGx]Downloaded from torrentgalaxy.to .txt": 718, "jimmy.kimmel.2021.07.13.lebron.james.hdtv.x264-60fps.mkv": 461440937, "jimmy.kimmel.2021.07.13.lebron.james.hdtv.x264-60fps.nfo": 88}
创建时间: 2024-03-24 14:05:38 大小:440.07 MB 文件数量:3 热度:3 最近下载:2025-01-14 00:57:03
    {"_ free audiobook version.txt": 884, "_ uploads will cease (your support needed - urgent - goal).txt": 688, "LeBron, Inc._ The Making of a Billion-Dollar Athlete by Brian Windhorst.epub": 17476462}
创建时间: 2024-04-02 17:53:19 大小:16.67 MB 文件数量:3 热度:15 最近下载:2025-09-20 10:52:03
    {"RARBG.com.txt": 34, "the.daily.show.2016.08.17.lebron.james.1080p.web.x264-heat.mkv": 688135175, "the.daily.show.2016.08.17.lebron.james.1080p.web.x264-heat.nfo": 838}
创建时间: 2024-05-29 17:24:11 大小:656.26 MB 文件数量:3 热度:6 最近下载:2025-01-21 01:13:10
    {"INFO.nfo": 1158, "cover.jpg": 59041, "05. Madre (Remastered 2024).flac": 136388067, "07. Sabor a Mí (Remastered 2024).flac": 126562322, "01. Yo Te Canté (Remastered 2024).flac": 158928854, "09. Abran Camino (Remastered 2024).flac": 167435188, "02. ...
创建时间: 2024-12-10 08:58:02 大小:1.38 GB 文件数量:11 热度:6 最近下载:2025-09-20 15:34:01
    {"Lebron (Jeff Benedict).epub": 2445169}
创建时间: 2025-01-20 10:57:57 大小:2.33 MB 文件数量:1 热度:4 最近下载:2025-04-05 15:02:02
    {"Saturday Night Live S33E01 - Lebron James.mp4": 739722705, "saturday-night-live-s-33-e-01-lebron-james_202503_meta.xml": 866, "saturday-night-live-s-33-e-01-lebron-james_202503_meta.sqlite": 20480}
创建时间: 2025-03-16 17:55:19 大小:705.47 MB 文件数量:3 热度:1 最近下载:2025-03-17 21:43:04